createdAt,value
2023-02-26T00:01:45.525Z,12.60
2023-02-26T00:04:16.106Z,10.90
2023-02-26T00:06:54.057Z,11.90
2023-02-26T00:09:24.694Z,14.30
2023-02-26T00:11:53.241Z,10.90
2023-02-26T00:14:21.469Z,11.20
2023-02-26T00:17:26.719Z,9.90
2023-02-26T00:19:55.179Z,10.70
2023-02-26T00:22:23.504Z,10.60
2023-02-26T00:24:51.575Z,11.10
2023-02-26T00:27:19.588Z,10.80
2023-02-26T00:29:48.316Z,9.50
2023-02-26T00:32:18.207Z,10.20
2023-02-26T00:34:47.910Z,10.10
2023-02-26T00:37:40.437Z,7.90
2023-02-26T00:40:23.276Z,8.30
2023-02-26T00:42:51.447Z,9.50
2023-02-26T00:45:22.361Z,7.70
2023-02-26T00:48:20.596Z,7.00
2023-02-26T00:51:17.798Z,9.60
2023-02-26T00:54:13.695Z,7.60
2023-02-26T00:59:09.822Z,10.30
2023-02-26T01:01:38.008Z,10.10
2023-02-26T01:04:07.110Z,10.60
2023-02-26T01:06:40.242Z,9.80
2023-02-26T01:09:20.365Z,8.90
2023-02-26T01:11:48.716Z,9.40
2023-02-26T01:14:17.165Z,7.10
2023-02-26T01:17:00.420Z,7.50
2023-02-26T01:19:41.915Z,8.70
2023-02-26T01:22:28.009Z,7.40
2023-02-26T01:25:22.395Z,8.00
2023-02-26T01:27:51.988Z,9.50
2023-02-26T01:30:21.012Z,7.30
2023-02-26T01:32:58.982Z,6.70
2023-02-26T01:35:42.573Z,8.20
2023-02-26T01:38:31.476Z,7.70
2023-02-26T01:41:24.945Z,7.60
2023-02-26T01:44:08.138Z,7.30
2023-02-26T01:47:01.270Z,9.30
2023-02-26T01:49:30.318Z,8.40
2023-02-26T01:52:43.207Z,7.30
2023-02-26T01:55:11.258Z,6.80
2023-02-26T01:57:39.783Z,7.20
2023-02-26T02:00:08.873Z,7.60
2023-02-26T02:02:40.586Z,9.30
2023-02-26T02:05:19.744Z,7.90
2023-02-26T02:07:48.139Z,7.10
2023-02-26T02:10:16.672Z,7.90
2023-02-26T02:13:07.505Z,6.80
2023-02-26T02:16:13.009Z,7.50
2023-02-26T02:18:49.811Z,6.30
2023-02-26T02:22:09.100Z,7.20
2023-02-26T02:24:58.377Z,6.40
2023-02-26T02:27:40.491Z,5.90
2023-02-26T02:30:17.308Z,7.00
2023-02-26T02:33:10.603Z,7.50
2023-02-26T02:35:45.065Z,5.90
2023-02-26T02:38:28.278Z,6.90
2023-02-26T02:41:11.497Z,6.00
2023-02-26T02:43:42.540Z,4.30
2023-02-26T02:46:17.639Z,7.00
2023-02-26T02:51:34.518Z,5.80
2023-02-26T02:54:08.188Z,7.60
2023-02-26T02:56:45.221Z,6.80
2023-02-26T02:59:16.264Z,6.40
2023-02-26T03:01:48.119Z,5.60
2023-02-26T03:04:17.469Z,7.20
2023-02-26T03:06:46.962Z,4.90
2023-02-26T03:09:14.904Z,6.30
2023-02-26T03:11:43.314Z,8.20
2023-02-26T03:14:14.566Z,6.10
2023-02-26T03:17:07.281Z,7.70
2023-02-26T03:19:48.463Z,7.10
2023-02-26T03:22:23.727Z,6.90
2023-02-26T03:25:00.464Z,6.90
2023-02-26T03:27:57.615Z,6.40
2023-02-26T03:30:37.649Z,7.70
2023-02-26T03:33:23.798Z,7.70
2023-02-26T03:35:58.769Z,11.70
2023-02-26T03:38:37.914Z,7.90
2023-02-26T03:41:17.249Z,8.10
2023-02-26T03:43:52.250Z,7.50
2023-02-26T03:46:27.631Z,8.50
2023-02-26T03:48:59.930Z,8.50
2023-02-26T03:51:30.378Z,9.00
2023-02-26T03:55:07.719Z,9.40
2023-02-26T03:57:56.451Z,8.40
2023-02-26T04:00:37.999Z,9.20
2023-02-26T04:03:15.018Z,7.20
2023-02-26T04:05:48.915Z,4.90
2023-02-26T04:08:17.288Z,5.90
2023-02-26T04:11:08.302Z,7.40
2023-02-26T04:13:36.455Z,6.00
2023-02-26T04:16:05.974Z,5.00
2023-02-26T04:18:34.678Z,4.20
2023-02-26T04:21:03.220Z,3.00
2023-02-26T04:23:31.245Z,3.30
2023-02-26T04:26:00.510Z,3.40
2023-02-26T04:28:30.216Z,4.70
2023-02-26T04:30:58.322Z,6.60
2023-02-26T04:33:27.438Z,8.70
2023-02-26T04:35:55.988Z,9.80
2023-02-26T04:38:24.222Z,6.20
2023-02-26T04:40:52.406Z,6.00
2023-02-26T04:43:20.887Z,4.40
2023-02-26T04:45:56.298Z,4.70
2023-02-26T04:48:24.618Z,4.40
2023-02-26T04:50:53.796Z,4.60
2023-02-26T04:53:22.855Z,4.90
2023-02-26T04:55:52.442Z,4.40
2023-02-26T04:58:20.582Z,5.70
2023-02-26T05:00:54.857Z,5.00
2023-02-26T05:03:23.277Z,6.60
2023-02-26T05:05:51.445Z,5.20
2023-02-26T05:08:19.618Z,4.30
2023-02-26T05:10:47.741Z,4.40
2023-02-26T05:13:15.729Z,4.50
2023-02-26T05:15:43.733Z,11.50
2023-02-26T05:18:13.382Z,12.70
2023-02-26T05:20:41.432Z,13.70
2023-02-26T05:23:09.391Z,13.90
2023-02-26T05:25:37.346Z,10.60
2023-02-26T05:28:05.391Z,11.40
2023-02-26T05:30:33.360Z,12.70
2023-02-26T05:33:01.433Z,10.30
2023-02-26T05:35:29.345Z,11.70
2023-02-26T05:37:57.272Z,11.60
2023-02-26T05:40:25.364Z,12.80
2023-02-26T05:42:53.835Z,12.80
2023-02-26T05:45:21.803Z,14.10
2023-02-26T05:47:49.835Z,10.70
2023-02-26T05:50:18.120Z,12.30
2023-02-26T05:52:46.180Z,12.00
2023-02-26T05:55:14.239Z,12.10
2023-02-26T05:57:42.472Z,10.60
2023-02-26T06:00:12.039Z,12.10
2023-02-26T06:02:42.851Z,11.00
2023-02-26T06:05:11.406Z,12.40
2023-02-26T06:07:39.958Z,13.20
2023-02-26T06:10:09.531Z,10.90
2023-02-26T06:12:38.508Z,11.30
2023-02-26T06:15:07.822Z,9.80
2023-02-26T06:17:38.442Z,9.70
2023-02-26T06:20:08.581Z,8.30
2023-02-26T06:22:36.622Z,9.10
2023-02-26T06:25:06.279Z,10.40
2023-02-26T06:27:34.793Z,10.40
2023-02-26T06:30:03.495Z,9.00
2023-02-26T06:32:31.505Z,12.70
2023-02-26T06:34:59.470Z,12.60
2023-02-26T06:37:27.513Z,10.20
2023-02-26T06:39:55.542Z,8.50
2023-02-26T06:42:23.519Z,10.60
2023-02-26T06:44:51.506Z,9.50
2023-02-26T06:47:19.446Z,10.00
2023-02-26T06:49:48.519Z,9.70
2023-02-26T06:52:16.474Z,8.90
2023-02-26T06:54:44.525Z,9.00
2023-02-26T06:57:12.622Z,7.60
2023-02-26T06:59:40.613Z,10.10
2023-02-26T07:02:17.193Z,11.90
2023-02-26T07:04:45.427Z,10.80
2023-02-26T07:07:14.055Z,11.10
2023-02-26T07:09:43.040Z,12.60
2023-02-26T07:12:12.408Z,11.00
2023-02-26T07:14:40.481Z,10.30
2023-02-26T07:17:08.653Z,9.90
2023-02-26T07:19:37.679Z,11.90
2023-02-26T07:22:05.661Z,15.30
2023-02-26T07:24:33.526Z,12.00
2023-02-26T07:27:01.472Z,12.80
2023-02-26T07:29:29.391Z,13.40
2023-02-26T07:31:57.397Z,15.20
2023-02-26T07:34:25.579Z,13.70
2023-02-26T07:36:53.663Z,12.40
2023-02-26T07:39:21.737Z,12.30
2023-02-26T07:41:49.702Z,10.20
2023-02-26T07:44:17.711Z,10.40
2023-02-26T07:46:45.945Z,11.90
2023-02-26T07:49:13.900Z,12.60
2023-02-26T07:51:45.833Z,11.60
2023-02-26T07:54:14.762Z,10.60
2023-02-26T07:56:45.709Z,14.90
2023-02-26T07:59:13.679Z,17.80
2023-02-26T08:01:41.583Z,15.80
2023-02-26T08:04:09.618Z,13.20
2023-02-26T08:06:37.608Z,13.40
2023-02-26T08:09:05.942Z,16.20
2023-02-26T08:11:36.828Z,15.60
2023-02-26T08:14:04.896Z,15.00
2023-02-26T08:16:33.230Z,16.30
2023-02-26T08:19:01.242Z,16.60
2023-02-26T08:21:29.175Z,14.70
2023-02-26T08:23:57.808Z,14.40
2023-02-26T08:26:26.173Z,16.10
2023-02-26T08:28:54.441Z,18.10
2023-02-26T08:31:23.841Z,17.50
2023-02-26T08:33:53.514Z,16.90
2023-02-26T08:36:22.015Z,15.20
2023-02-26T08:38:50.255Z,17.00
2023-02-26T08:41:18.446Z,13.70
2023-02-26T08:43:46.444Z,14.70
2023-02-26T08:46:15.348Z,15.50
2023-02-26T08:48:43.312Z,15.90
2023-02-26T08:51:11.589Z,15.80
2023-02-26T08:53:40.874Z,17.20
2023-02-26T08:56:08.824Z,14.50
2023-02-26T08:58:36.738Z,17.90
2023-02-26T09:01:05.928Z,21.10
2023-02-26T09:03:34.194Z,22.30
2023-02-26T09:06:04.640Z,22.70
2023-02-26T09:08:34.045Z,25.40
2023-02-26T09:11:03.248Z,29.20
2023-02-26T09:13:31.297Z,30.70
2023-02-26T09:15:59.499Z,31.80
2023-02-26T09:18:28.973Z,35.50
2023-02-26T09:20:56.824Z,40.10
2023-02-26T09:23:24.805Z,40.40
2023-02-26T09:25:54.624Z,39.70
2023-02-26T09:28:25.748Z,39.70
2023-02-26T09:30:56.939Z,40.90
2023-02-26T09:33:25.564Z,41.30
2023-02-26T09:35:54.049Z,41.80
2023-02-26T09:38:22.075Z,42.10
2023-02-26T09:40:55.776Z,39.50
2023-02-26T09:43:30.610Z,40.80
2023-02-26T09:46:04.821Z,42.40
2023-02-26T09:48:36.641Z,44.20
2023-02-26T09:51:09.421Z,42.10
2023-02-26T09:53:41.312Z,43.90
2023-02-26T09:56:24.729Z,39.20
2023-02-26T09:58:54.099Z,34.10
2023-02-26T10:01:32.974Z,34.20
2023-02-26T10:04:39.664Z,37.10
2023-02-26T10:07:27.854Z,34.50
2023-02-26T10:10:20.208Z,33.30
2023-02-26T10:12:53.509Z,33.10
2023-02-26T10:15:27.110Z,32.80
2023-02-26T10:18:03.769Z,34.30
2023-02-26T10:20:42.293Z,35.00
2023-02-26T10:23:38.757Z,31.50
2023-02-26T10:26:14.685Z,28.40
2023-02-26T10:29:13.384Z,29.60
2023-02-26T10:32:35.914Z,22.80
2023-02-26T10:35:17.722Z,27.10
2023-02-26T10:38:12.316Z,25.30
2023-02-26T10:41:04.665Z,28.20
2023-02-26T10:43:49.381Z,22.10
2023-02-26T10:46:45.113Z,27.70
2023-02-26T10:49:37.699Z,24.70
2023-02-26T10:52:18.579Z,26.10
2023-02-26T10:55:26.264Z,26.70
2023-02-26T10:58:13.307Z,22.60
2023-02-26T11:00:45.024Z,26.60
2023-02-26T11:03:20.733Z,19.90
2023-02-26T11:05:50.026Z,21.30
2023-02-26T11:08:27.913Z,18.50
2023-02-26T11:11:00.404Z,20.90
2023-02-26T11:13:31.336Z,18.50
2023-02-26T11:16:03.893Z,18.30
2023-02-26T11:18:41.549Z,18.20
2023-02-26T11:21:19.588Z,20.40
2023-02-26T11:23:49.560Z,19.00
2023-02-26T11:26:19.818Z,16.40
2023-02-26T11:28:50.588Z,15.60
2023-02-26T11:31:22.462Z,18.10
2023-02-26T11:34:00.023Z,16.00
2023-02-26T11:36:31.115Z,17.10
2023-02-26T11:39:12.754Z,16.20
2023-02-26T11:41:41.433Z,14.30
2023-02-26T11:44:18.639Z,16.50
2023-02-26T11:46:53.627Z,16.40
2023-02-26T11:49:25.988Z,14.70
2023-02-26T11:52:29.233Z,16.70
2023-02-26T11:55:06.738Z,17.00
2023-02-26T11:57:34.768Z,14.60
2023-02-26T12:00:33.078Z,12.20
2023-02-26T12:03:05.036Z,15.90
2023-02-26T12:05:33.359Z,15.10
2023-02-26T12:08:04.327Z,18.20
2023-02-26T12:10:47.407Z,17.20
2023-02-26T12:13:28.616Z,17.80
2023-02-26T12:16:12.395Z,16.40
2023-02-26T12:19:11.297Z,15.20
2023-02-26T12:22:05.741Z,16.50
2023-02-26T12:24:33.646Z,14.60
2023-02-26T12:27:43.589Z,13.00
2023-02-26T12:30:39.923Z,14.80
2023-02-26T12:33:30.304Z,12.20
2023-02-26T12:36:18.123Z,12.70
2023-02-26T12:38:58.032Z,12.90
2023-02-26T12:41:59.264Z,13.90
2023-02-26T12:44:30.452Z,13.50
2023-02-26T12:47:33.426Z,12.70
2023-02-26T12:50:18.650Z,13.30
2023-02-26T12:53:10.794Z,11.80
2023-02-26T12:56:01.639Z,10.10
2023-02-26T12:58:59.124Z,11.70
2023-02-26T13:02:01.138Z,10.60
2023-02-26T13:04:57.683Z,11.80
2023-02-26T13:10:16.672Z,15.20
2023-02-26T13:13:14.245Z,13.60
2023-02-26T13:16:26.715Z,11.40
2023-02-26T13:19:25.944Z,11.50
2023-02-26T13:22:00.008Z,11.40
2023-02-26T13:24:39.502Z,11.90
2023-02-26T13:27:14.128Z,10.00
2023-02-26T13:30:06.277Z,11.80
2023-02-26T13:32:35.579Z,9.90
2023-02-26T13:35:19.787Z,9.80
2023-02-26T13:37:54.389Z,12.70
2023-02-26T13:40:42.957Z,11.10
2023-02-26T13:43:22.548Z,11.70
2023-02-26T13:46:28.703Z,11.20
2023-02-26T13:49:09.362Z,11.30
2023-02-26T13:51:39.189Z,11.00
2023-02-26T13:54:16.560Z,10.20
2023-02-26T13:57:07.021Z,12.20
2023-02-26T13:59:44.461Z,9.10
2023-02-26T14:02:36.098Z,9.00
2023-02-26T14:05:28.390Z,8.40
2023-02-26T14:07:59.366Z,9.10
2023-02-26T14:10:36.785Z,10.60
2023-02-26T14:13:10.767Z,8.40
2023-02-26T14:15:59.985Z,8.50
2023-02-26T14:18:51.555Z,9.60
2023-02-26T14:21:26.016Z,7.00
2023-02-26T14:24:03.430Z,6.60
2023-02-26T14:26:35.695Z,8.40
2023-02-26T14:29:15.194Z,6.50
2023-02-26T14:32:03.121Z,6.20
2023-02-26T14:34:37.391Z,6.30
2023-02-26T14:37:11.298Z,6.80
2023-02-26T14:39:43.939Z,8.30
2023-02-26T14:42:19.632Z,8.80
2023-02-26T14:45:01.339Z,9.30
2023-02-26T14:47:29.758Z,8.80
2023-02-26T14:50:00.517Z,11.80
2023-02-26T14:52:47.109Z,10.70
2023-02-26T14:55:39.881Z,9.20
2023-02-26T14:58:33.741Z,9.00
2023-02-26T15:01:21.565Z,10.30
2023-02-26T15:04:00.895Z,8.30
2023-02-26T15:07:06.537Z,10.20
2023-02-26T15:10:12.300Z,14.00
2023-02-26T15:13:19.643Z,9.00
2023-02-26T15:16:00.146Z,9.70
2023-02-26T15:18:50.577Z,8.10
2023-02-26T15:21:47.573Z,7.10
2023-02-26T15:24:16.841Z,6.50
2023-02-26T15:27:00.131Z,5.90
2023-02-26T15:29:31.833Z,8.00
2023-02-26T15:32:07.268Z,8.00
2023-02-26T15:34:35.331Z,7.50
2023-02-26T15:37:03.645Z,6.10
2023-02-26T15:39:33.705Z,10.00
2023-02-26T15:42:05.074Z,8.30
2023-02-26T15:44:36.998Z,8.30
2023-02-26T15:47:06.854Z,10.20
2023-02-26T15:49:41.924Z,7.70
2023-02-26T15:52:19.661Z,7.10
2023-02-26T15:55:25.307Z,10.50
2023-02-26T15:57:55.295Z,8.20
2023-02-26T16:00:26.473Z,7.30
2023-02-26T16:02:57.445Z,7.90
2023-02-26T16:05:28.597Z,11.40
2023-02-26T16:07:56.921Z,7.70
2023-02-26T16:10:41.938Z,7.80
2023-02-26T16:13:16.676Z,8.20
2023-02-26T16:15:44.997Z,6.90
2023-02-26T16:18:18.228Z,7.40
2023-02-26T16:20:50.350Z,8.10
2023-02-26T16:23:23.147Z,8.80
2023-02-26T16:25:56.242Z,7.70
2023-02-26T16:28:30.830Z,10.80
2023-02-26T16:31:01.359Z,6.70
2023-02-26T16:33:34.091Z,6.70
2023-02-26T16:36:09.817Z,7.60
2023-02-26T16:38:50.299Z,8.60
2023-02-26T16:41:23.863Z,9.60
2023-02-26T16:43:56.917Z,8.10
2023-02-26T16:46:42.772Z,8.20
2023-02-26T16:49:29.684Z,7.30
2023-02-26T16:51:59.624Z,9.80
2023-02-26T16:54:34.612Z,8.20
2023-02-26T16:57:04.828Z,9.70
2023-02-26T16:59:36.348Z,8.90
2023-02-26T17:02:16.205Z,9.70
2023-02-26T17:04:47.951Z,10.50
2023-02-26T17:07:32.650Z,9.90
2023-02-26T17:10:21.807Z,11.20
2023-02-26T17:12:54.098Z,13.00
2023-02-26T17:15:37.139Z,11.30
2023-02-26T17:18:05.518Z,10.60
2023-02-26T17:20:34.032Z,10.30
2023-02-26T17:23:04.549Z,10.60
2023-02-26T17:25:40.797Z,10.10
2023-02-26T17:28:15.547Z,11.30
2023-02-26T17:30:43.626Z,9.40
2023-02-26T17:33:13.532Z,8.40
2023-02-26T17:35:42.917Z,10.20
2023-02-26T17:38:13.299Z,11.30
2023-02-26T17:40:44.301Z,11.80
2023-02-26T17:43:12.410Z,12.90
2023-02-26T17:45:41.250Z,12.50
2023-02-26T17:48:11.320Z,19.50
2023-02-26T17:50:47.500Z,14.80
2023-02-26T17:53:17.671Z,14.50
2023-02-26T17:55:47.457Z,11.80
2023-02-26T17:58:19.949Z,10.90
2023-02-26T18:00:50.910Z,14.40
2023-02-26T18:03:20.657Z,13.40
2023-02-26T18:05:50.843Z,14.10
2023-02-26T18:08:26.231Z,12.10
2023-02-26T18:10:55.378Z,11.40
2023-02-26T18:13:23.721Z,10.50
2023-02-26T18:15:52.641Z,12.40
2023-02-26T18:18:22.292Z,13.80
2023-02-26T18:20:51.424Z,13.10
2023-02-26T18:23:21.719Z,11.10
2023-02-26T18:25:52.200Z,10.80
2023-02-26T18:28:24.082Z,11.80
2023-02-26T18:30:53.708Z,10.60
2023-02-26T18:33:24.164Z,14.00
2023-02-26T18:35:57.027Z,14.00
2023-02-26T18:38:28.412Z,12.10
2023-02-26T18:40:56.798Z,12.90
2023-02-26T18:43:25.033Z,12.10
2023-02-26T18:45:53.247Z,13.30
2023-02-26T18:48:21.756Z,15.70
2023-02-26T18:50:50.092Z,16.80
2023-02-26T18:53:23.260Z,16.50
2023-02-26T18:55:53.590Z,16.00
2023-02-26T18:58:21.910Z,16.60
2023-02-26T19:00:51.026Z,17.70
2023-02-26T19:03:19.432Z,14.80
2023-02-26T19:05:56.772Z,16.50
2023-02-26T19:08:25.150Z,16.40
2023-02-26T19:10:54.460Z,15.60
2023-02-26T19:13:24.011Z,15.70
2023-02-26T19:15:52.171Z,18.50
2023-02-26T19:18:20.692Z,18.80
2023-02-26T19:20:48.757Z,18.60
2023-02-26T19:23:18.943Z,16.30
2023-02-26T19:25:48.523Z,16.70
2023-02-26T19:28:16.761Z,19.30
2023-02-26T19:30:44.885Z,17.30
2023-02-26T19:33:14.892Z,16.60
2023-02-26T19:35:42.963Z,18.60
2023-02-26T19:38:14.724Z,17.20
2023-02-26T19:40:43.748Z,16.40
2023-02-26T19:43:11.830Z,16.20
2023-02-26T19:45:39.869Z,20.50
2023-02-26T19:48:07.947Z,19.20
2023-02-26T19:50:36.724Z,15.50
2023-02-26T19:53:06.163Z,17.00
2023-02-26T19:55:34.366Z,13.40
2023-02-26T19:58:02.456Z,16.00
2023-02-26T20:00:30.587Z,15.10
2023-02-26T20:02:59.217Z,14.10
2023-02-26T20:05:27.455Z,14.50
2023-02-26T20:07:56.503Z,15.80
2023-02-26T20:10:26.557Z,15.20
2023-02-26T20:12:56.755Z,16.10
2023-02-26T20:15:25.489Z,15.80
2023-02-26T20:17:53.554Z,15.70
2023-02-26T20:20:22.406Z,17.50
2023-02-26T20:22:50.714Z,15.10
2023-02-26T20:25:20.034Z,14.80
2023-02-26T20:27:48.055Z,14.50
2023-02-26T20:30:16.566Z,11.90
2023-02-26T20:32:44.663Z,12.70
2023-02-26T20:35:13.097Z,12.10
2023-02-26T20:37:41.237Z,11.20
2023-02-26T20:40:10.474Z,12.90
2023-02-26T20:42:38.675Z,13.50
2023-02-26T20:45:08.174Z,13.70
2023-02-26T20:47:36.608Z,15.00
2023-02-26T20:50:04.934Z,13.70
2023-02-26T20:52:33.195Z,13.60
2023-02-26T20:55:04.224Z,14.70
2023-02-26T20:57:32.682Z,13.80
2023-02-26T21:00:04.146Z,13.80
2023-02-26T21:02:32.240Z,16.60
2023-02-26T21:05:00.199Z,15.30
2023-02-26T21:07:28.477Z,13.70
2023-02-26T21:09:57.777Z,15.00
2023-02-26T21:12:26.721Z,17.50
2023-02-26T21:14:56.107Z,15.60
2023-02-26T21:17:25.749Z,13.70
2023-02-26T21:19:54.198Z,12.50
2023-02-26T21:22:22.767Z,14.10
2023-02-26T21:24:51.795Z,14.50
2023-02-26T21:27:19.894Z,13.30
2023-02-26T21:29:47.992Z,13.20
2023-02-26T21:32:16.108Z,12.80
2023-02-26T21:34:44.203Z,12.60
2023-02-26T21:37:13.238Z,13.70
2023-02-26T21:39:42.714Z,12.00
2023-02-26T21:42:12.494Z,12.50
2023-02-26T21:44:41.039Z,12.20
2023-02-26T21:47:09.362Z,13.40
2023-02-26T21:49:37.860Z,13.30
2023-02-26T21:52:07.991Z,12.10
2023-02-26T21:54:36.174Z,14.10
2023-02-26T21:57:04.227Z,13.70
2023-02-26T21:59:32.539Z,13.30
2023-02-26T22:02:00.639Z,11.20
2023-02-26T22:04:28.683Z,13.50
2023-02-26T22:06:57.151Z,12.00
2023-02-26T22:09:25.183Z,12.20
2023-02-26T22:11:53.123Z,12.10
2023-02-26T22:14:21.330Z,11.50
2023-02-26T22:16:49.414Z,14.40
2023-02-26T22:19:17.365Z,13.50
2023-02-26T22:21:45.230Z,13.50
2023-02-26T22:24:13.098Z,13.50
2023-02-26T22:26:42.784Z,14.20
2023-02-26T22:29:10.853Z,12.00
2023-02-26T22:31:38.876Z,13.10
2023-02-26T22:34:07.019Z,13.50
2023-02-26T22:36:37.088Z,12.90
2023-02-26T22:39:06.184Z,13.30
2023-02-26T22:41:35.186Z,13.40
2023-02-26T22:44:03.920Z,11.70
2023-02-26T22:46:32.634Z,12.40
2023-02-26T22:49:01.122Z,14.40
2023-02-26T22:51:30.002Z,13.70
2023-02-26T22:53:59.551Z,13.10
2023-02-26T22:56:28.749Z,14.60
2023-02-26T22:58:57.435Z,12.50
2023-02-26T23:01:26.171Z,12.90
2023-02-26T23:03:54.245Z,10.10
2023-02-26T23:06:22.138Z,10.30
2023-02-26T23:08:50.053Z,9.70
2023-02-26T23:11:18.816Z,10.50
2023-02-26T23:13:47.243Z,12.40
2023-02-26T23:16:15.618Z,8.90
2023-02-26T23:18:45.660Z,8.40
2023-02-26T23:21:14.752Z,9.30
2023-02-26T23:23:44.014Z,10.40
2023-02-26T23:26:13.110Z,8.70
2023-02-26T23:28:41.127Z,10.60
2023-02-26T23:31:09.181Z,9.00
2023-02-26T23:33:37.350Z,9.30
2023-02-26T23:36:05.759Z,9.30
2023-02-26T23:38:33.947Z,9.80
2023-02-26T23:41:01.996Z,9.50
2023-02-26T23:43:29.944Z,9.60
2023-02-26T23:45:57.901Z,12.60
2023-02-26T23:48:27.565Z,10.30
2023-02-26T23:50:56.002Z,11.20
2023-02-26T23:53:24.071Z,11.30
2023-02-26T23:55:57.209Z,10.60
2023-02-26T23:58:27.202Z,10.60
